ADDS METAR Data INFO
IDs: Format: Raw Decoded Include TAF

Data at: 1547 UTC 24 Sep 2017

KINK 241526Z AUTO 16010KT 9SM BKN016 24/21 A2987 RMK AO2 T02390206
KINK 241453Z AUTO 16010KT 10SM FEW012 23/21 A2986 RMK AO2 SLP069 T02280206 51012
KINK 241353Z AUTO 00000KT 10SM CLR 21/19 A2985 RMK AO2 SLP071 T02060194
KINK 241253Z AUTO 00000KT 10SM CLR 19/19 A2984 RMK AO2 SLP067 T01940189
KINK 241153Z AUTO 00000KT 10SM FEW065 BKN080 19/19 A2982 RMK AO2 SLP060 60040 70156 T01940189 10200 20189 56004
KINK 241053Z AUTO 22006KT 10SM FEW110 19/19 A2982 RMK AO2 RAE43 SLP061 P0010 T01940189
KINK 240953Z AUTO 15004KT 4SM RA BR SCT037 SCT065 OVC110 19/19 A2982 RMK AO2 LTG DSNT S SLP061 P0004 T01940194
KINK 240910Z AUTO 13007KT 10SM -RA SCT004 BKN095 BKN120 19/19 A2982 RMK AO2 LTG DSNT SW P0000 T01940189
KINK 240853Z AUTO 11006KT 10SM -RA BKN005 BKN110 19/19 A2983 RMK AO2 LTG DSNT E RAB10E28B50 CIG 003V007 SLP058 P0001 60026 T01940189 56007
KINK 240849Z AUTO 11005KT 10SM BKN004 OVC110 19/19 A2983 RMK AO2 LTG DSNT E RAB10E28 CIG 003V007 P0001
KINK 240842Z AUTO 09005KT 10SM BKN006 BKN120 19/19 A2983 RMK AO2 LTG DSNT E RAB10E28 P0001 T01940189
KINK 240801Z AUTO 08005KT 10SM FEW007 OVC090 19/19 A2983 RMK AO2 LTG DSNT SE T01890189
KINK 240753Z AUTO 09005KT 10SM BKN090 OVC110 19/19 A2984 RMK AO2 LTG DSNT SE AND S RAE44 SLP060 P0011 T01890189
KINK 240653Z AUTO 30008KT 3SM RA BR OVC044 19/18 A2986 RMK AO2 LTG DSNT NE AND S AND W RAE06B33 TSE11 SLP065 P0014 T01890183
KINK 240617Z AUTO 04006KT 10SM VCTS OVC049 19/19 A2983 RMK AO2 LTG DSNT NE AND SW AND W RAE06 TSE11 P0000 T01940189
KINK 240553Z AUTO 30007KT 8SM -TSRA BKN046 OVC065 20/18 A2984 RMK AO2 PK WND 28028/0454 LTG DSNT ALQDS TSB16 SLP062 P0032 60061 T02000183 10250 20183 403170183 51028
KINK 240548Z AUTO 00000KT 3SM -TSRA BR BKN046 OVC065 19/18 A2984 RMK AO2 PK WND 28028/0454 LTG DSNT ALQDS TSB16 P0031
KINK 240531Z AUTO 29005G20KT 1 3/4SM +TSRA BR OVC046 19/18 A2986 RMK AO2 PK WND 28028/0454 LTG DSNT ALQDS TSB16 P0025 T01890183
KINK 240522Z AUTO 27015G19KT 4SM +TSRA BR OVC048 18/18 A2985 RMK AO2 PK WND 28028/0454 LTG DSNT ALQDS TSB16 P0016 T01830178
KINK 240507Z AUTO 27012G22KT 3SM VCTS -RA BR FEW036 BKN046 OVC055 18/17 A2985 RMK AO2 PK WND 28028/0454 LTG DSNT ALQDS P0011 T01830172
KINK 240500Z AUTO 28014G30KT 1 3/4SM VCTS +RA BR FEW028 OVC044 19/17 A2987 RMK AO2 PK WND 28028/0454 LTG DSNT ALQDS P0009 T01940172
KINK 240453Z AUTO 28022G30KT 3SM VCTS +RA BR OVC044 19/18 A2986 RMK AO2 PK WND 27032/0413 WSHFT 0402 LTG DSNT ALQDS RAB19E39B52 TSB03E38 SLP068 P0012 T01940183
KINK 240444Z AUTO 29008KT 10SM VCTS OVC044 20/18 A2983 RMK AO2 PK WND 27032/0413 WSHFT 0402 LTG DSNT ALQDS RAB19E39 TSB03E38 P0003 T02000183
KINK 240422Z AUTO 29020G32KT 8SM -TSRA FEW023 BKN040 OVC075 21/18 A2980 RMK AO2 PK WND 27032/0413 WSHFT 0402 LTG DSNT SW-N RAB19 TSB03 P0001 T02060178
KINK 240411Z AUTO 28018G25KT 10SM TS FEW023 BKN047 OVC110 21/19 A2981 RMK AO2 WSHFT 0351 LTG DSNT SW-N TSB03 T02110189
KINK 240403Z AUTO 27019G24KT 10SM TS FEW021 BKN075 OVC110 23/18 A2980 RMK AO2 WSHFT 0347 LTG DSNT SW-N TSB03 PRESRR T02330183
KINK 240353Z AUTO 14014KT 10SM VCTS SCT075 BKN110 25/18 A2975 RMK AO2 LTG DSNT SW-N SLP029 T02500178
KINK 240350Z AUTO 14013G23KT 10SM VCTS FEW075 BKN110 24/18 A2975 RMK AO2 LTG DSNT SW-N
KINK 240253Z AUTO 13015G22KT 10SM FEW070 FEW120 24/19 A2975 RMK AO2 PK WND 12031/0212 LTG DSNT SW-NW RAB18E29 SLP030 P0000 60017 T02390189 50001
KINK 240223Z AUTO 11014G26KT 10SM -RA FEW046 SCT095 BKN110 22/19 A2976 RMK AO2 PK WND 12031/0212 LTG DSNT W AND NW RAB18 P0000 T02220194
KINK 240153Z AUTO 16021G27KT 10SM VCTS FEW045 SCT100 22/20 A2978 RMK AO2 PK WND 16027/0152 LTG DSNT SE AND S AND NW RAE47 TSE18 SLP041 P0012 T02220200
KINK 240132Z AUTO 14015KT 5SM VCTS -RA BR SCT055 SCT080 OVC100 22/20 A2976 RMK AO2 PK WND 16026/0116 LTG DSNT ALQDS TSE18 P0012 T02220200 $
KINK 240124Z AUTO 14014G26KT 3SM RA BR SCT060 BKN090 OVC110 22/20 A2976 RMK AO2 PK WND 16026/0116 LTG DSNT ALQDS TSE18 PRESFR P0011 T02220200 $
KINK 240053Z AUTO 15011KT 6SM TSRA BKN100 BKN120 23/20 A2977 RMK AO2 LTG DSNT SE-W RAE17B21 TSB11E26B34 PRESRR SLP039 P0005 T02330200 $
KINK 240040Z AUTO 13013G20KT 7SM -TSRA OVC100 24/20 A2974 RMK AO2 LTG DSNT S-NW RAE17B21 TSB11E26B34 P0003 T02390200 $
KINK 240032Z AUTO 14011G19KT 7SM VCTS -RA BKN100 OVC120 24/20 A2974 RMK AO2 LTG DSNT S-NW RAE17B21 TSB11E26 P0002 T02390200 $
KINK 240017Z AUTO 11008KT 10SM TS FEW043 FEW090 OVC110 23/21 A2973 RMK AO2 LTG DSNT S-NW RAE17 TSB11 P0001 T02330206 $
KINK 232353Z AUTO 13021G30KT 4SM VCTS -RA BR SCT038 SCT080 BKN120 22/20 A2975 RMK AO2 PK WND 13034/2340 LTG DSNT S AND SW TSE45 SLP032 P0009 60055 T02220200 10317 20211 55007 $
KINK 232351Z AUTO 13021G31KT 5SM VCTS -RA BR SCT038 SCT080 BKN120 22/20 A2975 RMK AO2 PK WND 13034/2340 LTG DSNT S AND SW TSE45 P0009 $
KINK 232311Z AUTO 13008KT 4SM -TSRA BR SCT044 BKN055 OVC090 23/21 A2978 RMK AO2 LTG DSNT SE-SW P0004 T02280211 $
KINK 232300Z AUTO 11009KT 2 1/2SM TSRA BR FEW050 BKN075 OVC090 22/21 A2976 RMK AO2 LTG DSNT SE-SW PRESFR P0002 T02220211 $
KINK 232253Z AUTO 12008KT 1 3/4SM +TSRA BR SCT050 BKN070 OVC095 22/21 A2977 RMK AO2 PK WND 27026/2154 WSHFT 2154 LTG DSNT SE-W PRESFR SLP040 P0046 T02220211 $
KINK 232245Z AUTO 16005KT 3/4SM +TSRA BR BKN049 BKN065 OVC080 22/21 A2979 RMK AO2 PK WND 27026/2154 WSHFT 2154 LTG DSNT SE-W P0042 T02170206 $
KINK 232220Z AUTO 31012G22KT 1 3/4SM +TSRA BR BKN043 OVC050 22/21 A2979 RMK AO2 PK WND 27026/2154 WSHFT 2154 LTG DSNT S-W P0012 T02220206 $
KINK 232210Z AUTO 30018G22KT 2 1/2SM +TSRA BR OVC041 22/21 A2979 RMK AO2 PK WND 27026/2154 WSHFT 2154 LTG DSNT S-W P0005 T02170206 $
KINK 232200Z AUTO 30017G37KT 7SM -TSRA FEW032 BKN041 BKN050 22/20 A2978 RMK AO2 PK WND 27026/2154 WSHFT 2140 LTG DSNT S-W P0000 T02220200 $
KINK 232153Z AUTO 24025G37KT 10SM -TSRA FEW032 BKN039 BKN055 23/18 A2977 RMK AO2 PK WND 24037/2151 WSHFT 2132 LTG DSNT S-NW RAB53 TSB14 SLP040 P0000 T02330183 $
KINK 232146Z AUTO 27011G25KT 10SM TS SCT034 BKN055 24/18 A2979 RMK AO2 PK WND 14028/2106 WSHFT 2132 LTG DSNT SW-NW TSB14 T02390178 $
KINK 232120Z AUTO 13018G23KT 10SM TS SCT050 29/17 A2976 RMK AO2 PK WND 14028/2106 LTG DSNT SW AND W TSB14 T02890172 $
KINK 232107Z AUTO 14021G28KT 10SM VCTS SCT050 29/17 A2975 RMK AO2 PK WND 14028/2106 LTG DSNT SW-NW T02890172 $
KINK 232053Z AUTO 13017G24KT 10SM FEW050 29/17 A2976 RMK AO2 PK WND 13028/2008 LTG DSNT SW AND W SLP027 T02940172 56027 $
KINK 231953Z AUTO 14019G27KT 10SM SCT047 31/17 A2978 RMK AO2 PK WND 15032/1941 LTG DSNT W SLPNO T03110172 $
KINK 231853Z AUTO 14018G31KT 10SM SCT041 31/18 A2981 RMK AO2 PK WND 14031/1845 SLP046 T03060178 $
KINK 231753Z AUTO 14019G28KT 10SM SCT035 28/18 A2984 RMK AO2 PK WND 15031/1726 SLP058 T02830178 10294 20228 58009 $
KINK 231653Z AUTO 14019G26KT 10SM BKN032 27/18 A2987 RMK AO2 PK WND 15030/1604 SLP067 T02720183 $
KINK 231648Z AUTO 15020G26KT 10SM SCT030 BKN036 27/18 A2987 RMK AO2 PK WND 15030/1604 $
KINK 231553Z AUTO 15021G29KT 10SM BKN025 26/18 A2988 RMK AO2 PK WND 15029/1544 SLP068 T02560183 $
KINK 231453Z AUTO 15021G30KT 10SM BKN022 24/19 A2986 RMK AO2 PK WND 16030/1451 SLP065 T02440189 51005 $
KINK 231353Z AUTO 15018G27KT 10SM OVC019 23/19 A2986 RMK AO2 PK WND 15027/1344 SLP066 T02330189 $
KINK 231253Z AUTO 15019G25KT 10SM BKN021 23/18 A2985 RMK AO2 PK WND 15026/1221 SLP062 T02280183 $
KINK 231153Z AUTO 15016G22KT 10SM OVC023 23/19 A2985 RMK AO2 SLP059 T02280189 10261 20228 53002 $
KINK 231053Z AUTO 14015KT 10SM OVC021 23/18 A2984 RMK AO2 SLP054 T02280183 $
KINK 230953Z AUTO 15016G20KT 10SM BKN022 23/18 A2984 RMK AO2 SLP054 T02280183 $
KINK 230949Z AUTO 15013G22KT 10SM BKN022 23/18 A2984 RMK AO2 $
KINK 230853Z AUTO 14015G24KT 10SM CLR 23/18 A2984 RMK AO2 PK WND 14026/0842 SLP055 T02330183 50003 $
KINK 230753Z AUTO A2984 RMK AO2 PK WND 15028/0726 SLPNO PWINO $
KINK 230653Z AUTO 15017G23KT 10SM CLR 26/17 A2984 RMK AO2 SLP052 T02560167
KINK 230553Z AUTO 14013KT 10SM CLR 26/17 A2983 RMK AO2 SLP051 T02610172 10311 20261 403500222 58001
KINK 230453Z AUTO 14014G22KT 10SM CLR 27/17 A2984 RMK AO2 SLP055 T02670172
KINK 230353Z AUTO 14013KT 10SM BKN120 27/17 A2984 RMK AO2 SLP057 T02720167